This is the latest recevied weather packets stored in our database for station/object DL4MGC-10. If no packets are shown the sender has not sent any weather packets the latest 10 day(s).
| Time | Temp. | Humidity | Pressure | Rain* | Wind** | Luminosity | Snow |
|---|---|---|---|---|---|---|---|
| 1788355630 | 26.67° C | 51% | 1020.1 hPa | - | - | - | - |
| 1788354730 | 27.22° C | 53% | 1020.4 hPa | - | - | - | - |
| 1788353830 | 26.67° C | 53% | 1020.4 hPa | - | - | - | - |
| 1788352930 | 27.22° C | 55% | 1020.4 hPa | - | - | - | - |
| 1788352030 | 26.11° C | 56% | 1020.5 hPa | - | - | - | - |
| 1788351129 | 26.67° C | 53% | 1020.7 hPa | - | - | - | - |
| 1788350229 | 25° C | 58% | 1020.9 hPa | - | - | - | - |
| 1788349329 | 25.56° C | 56% | 1021 hPa | - | - | - | - |
| 1788348429 | 25.56° C | 58% | 1021.1 hPa | - | - | - | - |
| 1788347529 | 24.44° C | 60% | 1021.2 hPa | - | - | - | - |
| 1788346629 | 24.44° C | 61% | 1021.4 hPa | - | - | - | - |
| 1788345729 | 24.44° C | 64% | 1021.5 hPa | - | - | - | - |
| 1788344829 | 23.33° C | 69% | 1021.7 hPa | - | - | - | - |
| 1788343929 | 23.33° C | 67% | 1021.7 hPa | - | - | - | - |
| 1788343028 | 22.78° C | 69% | 1021.6 hPa | - | - | - | - |
| 1788342128 | 23.33° C | 71% | 1021.9 hPa | - | - | - | - |
| 1788341228 | 22.22° C | 71% | 1022 hPa | - | - | - | - |
| 1788340328 | 22.22° C | 75% | 1022 hPa | - | - | - | - |
| 1788339428 | 21.67° C | 72% | 1022.2 hPa | - | - | - | - |
| 1788338528 | 21.67° C | 74% | 1021.9 hPa | - | - | - | - |
| 1788337628 | 21.11° C | 75% | 1021.9 hPa | - | - | - | - |
| 1788336728 | 20° C | 76% | 1021.9 hPa | - | - | - | - |
| 1788335828 | 21.67° C | 73% | 1021.9 hPa | - | - | - | - |
| 1788334927 | 21.67° C | 72% | 1021.6 hPa | - | - | - | - |
| 1788334027 | 20° C | 76% | 1021.6 hPa | - | - | - | - |
* Rain since midnight (hover to see other rain measurements)
** Current wind speed in m/s (hover to see current wind gust speed)